createdAt,value
2018-09-15T00:01:27.335Z,12.23
2018-09-15T00:05:29.529Z,12.83
2018-09-15T00:09:31.723Z,12.87
2018-09-15T00:13:33.996Z,13.57
2018-09-15T00:17:36.238Z,13.30
2018-09-15T00:21:38.507Z,15.37
2018-09-15T00:25:41.388Z,13.83
2018-09-15T00:29:43.514Z,14.73
2018-09-15T00:33:45.696Z,14.50
2018-09-15T00:37:47.862Z,14.57
2018-09-15T00:41:50.392Z,13.63
2018-09-15T00:45:52.950Z,16.53
2018-09-15T00:49:55.091Z,14.33
2018-09-15T00:53:57.251Z,13.17
2018-09-15T00:57:59.440Z,13.47
2018-09-15T01:02:01.580Z,12.03
2018-09-15T01:06:03.735Z,15.07
2018-09-15T01:10:06.552Z,14.90
2018-09-15T01:14:08.760Z,11.20
2018-09-15T01:18:10.960Z,12.07
2018-09-15T01:22:13.128Z,9.97
2018-09-15T01:26:15.507Z,11.23
2018-09-15T01:30:17.738Z,10.10
2018-09-15T01:34:20.079Z,9.73
2018-09-15T01:38:22.228Z,9.50
2018-09-15T01:42:24.906Z,12.47
2018-09-15T01:46:27.051Z,14.27
2018-09-15T01:50:29.180Z,10.97
2018-09-15T01:54:31.330Z,9.40
2018-09-15T01:58:33.459Z,10.53
2018-09-15T02:02:35.598Z,11.67
2018-09-15T02:06:38.183Z,11.07
2018-09-15T02:10:40.362Z,12.67
2018-09-15T02:14:42.488Z,11.83
2018-09-15T02:18:44.634Z,11.47
2018-09-15T02:22:46.837Z,10.90
2018-09-15T02:26:48.954Z,11.63
2018-09-15T02:30:51.122Z,11.97
2018-09-15T02:34:53.338Z,10.50
2018-09-15T02:38:55.562Z,11.17
2018-09-15T02:42:57.714Z,10.97
2018-09-15T02:46:59.895Z,12.33
2018-09-15T02:51:02.068Z,11.70
2018-09-15T02:55:04.676Z,11.20
2018-09-15T02:59:06.838Z,13.53
2018-09-15T03:03:08.987Z,12.37
2018-09-15T03:07:11.851Z,11.97
2018-09-15T03:11:13.959Z,11.57
2018-09-15T03:15:16.087Z,12.17
2018-09-15T03:19:18.350Z,11.87
2018-09-15T03:23:20.572Z,14.53
2018-09-15T03:27:22.958Z,13.07
2018-09-15T03:31:25.690Z,11.30
2018-09-15T03:35:27.906Z,11.47
2018-09-15T03:39:30.095Z,10.67
2018-09-15T03:43:32.243Z,13.30
2018-09-15T03:47:34.359Z,12.63
2018-09-15T03:51:36.552Z,12.20
2018-09-15T03:55:38.700Z,13.83
2018-09-15T03:59:40.875Z,12.90
2018-09-15T04:03:43.038Z,11.93
2018-09-15T04:07:45.185Z,12.13
2018-09-15T04:11:47.414Z,13.73
2018-09-15T04:15:49.622Z,16.50
2018-09-15T04:19:51.758Z,12.90
2018-09-15T04:23:53.918Z,14.67
2018-09-15T04:27:56.054Z,12.47
2018-09-15T04:31:58.475Z,11.27
2018-09-15T04:36:00.690Z,13.20
2018-09-15T04:40:02.942Z,13.10
2018-09-15T04:44:05.286Z,11.97
2018-09-15T04:48:07.422Z,13.40
2018-09-15T04:52:09.578Z,10.17
2018-09-15T04:56:11.761Z,10.23
2018-09-15T05:00:13.904Z,10.37
2018-09-15T05:04:16.067Z,11.53
2018-09-15T05:08:18.539Z,10.27
2018-09-15T05:12:20.789Z,10.83
2018-09-15T05:16:22.877Z,10.57
2018-09-15T05:20:25.008Z,9.70
2018-09-15T05:24:27.171Z,8.77
2018-09-15T05:28:29.339Z,9.83
2018-09-15T05:32:31.501Z,8.77
2018-09-15T05:36:33.690Z,9.80
2018-09-15T05:40:36.703Z,11.30
2018-09-15T05:44:38.891Z,9.40
2018-09-15T05:48:41.035Z,9.43
2018-09-15T05:52:43.194Z,13.20
2018-09-15T05:56:45.435Z,13.43
2018-09-15T06:00:47.660Z,14.17
2018-09-15T06:04:49.848Z,13.40
2018-09-15T06:08:52.032Z,12.27
2018-09-15T06:12:54.257Z,14.70
2018-09-15T06:16:56.402Z,12.23
2018-09-15T06:20:58.612Z,10.23
2018-09-15T06:25:00.769Z,10.70
2018-09-15T06:29:03.202Z,13.53
2018-09-15T06:33:05.471Z,9.30
2018-09-15T06:37:07.650Z,9.43
2018-09-15T06:41:10.324Z,8.13
2018-09-15T06:45:12.572Z,9.37
2018-09-15T06:49:14.746Z,5.50
2018-09-15T06:53:16.928Z,6.00
2018-09-15T06:57:19.141Z,6.60
2018-09-15T07:01:21.333Z,9.37
2018-09-15T07:05:24.075Z,8.50
2018-09-15T07:09:26.254Z,7.50
2018-09-15T07:13:28.400Z,8.27
2018-09-15T07:17:30.743Z,9.43
2018-09-15T07:21:32.900Z,6.73
2018-09-15T07:25:35.074Z,7.20
2018-09-15T07:29:37.263Z,10.50
2018-09-15T07:33:39.449Z,4.40
2018-09-15T07:37:42.547Z,5.20
2018-09-15T07:41:44.775Z,5.80
2018-09-15T07:45:47.339Z,5.17
2018-09-15T07:49:50.222Z,3.60
2018-09-15T07:53:52.364Z,4.07
2018-09-15T07:57:54.765Z,3.63
2018-09-15T08:01:56.842Z,3.07
2018-09-15T08:05:59.048Z,2.40
2018-09-15T08:10:01.243Z,5.67
2018-09-15T08:14:03.485Z,2.33
2018-09-15T08:18:05.678Z,3.33
2018-09-15T08:22:07.890Z,4.33
2018-09-15T08:26:10.114Z,2.20
2018-09-15T08:30:12.378Z,2.67
2018-09-15T08:34:14.551Z,5.63
2018-09-15T08:38:16.752Z,2.77
2018-09-15T08:42:19.015Z,3.03
2018-09-15T08:46:21.151Z,1.50
2018-09-15T08:50:23.374Z,1.30
2018-09-15T08:54:25.712Z,1.53
2018-09-15T08:58:27.876Z,4.13
2018-09-15T09:02:30.094Z,2.67
2018-09-15T09:06:32.252Z,1.30
2018-09-15T09:10:34.736Z,1.10
2018-09-15T09:14:36.926Z,1.80
2018-09-15T09:18:39.183Z,2.77
2018-09-15T09:22:41.438Z,1.47
2018-09-15T09:26:43.664Z,1.23
2018-09-15T09:30:45.806Z,1.73
2018-09-15T09:34:48.017Z,2.83
2018-09-15T09:38:50.234Z,2.80
2018-09-15T09:42:52.760Z,1.77
2018-09-15T09:46:54.966Z,1.43
2018-09-15T09:50:57.147Z,2.90
2018-09-15T09:54:59.348Z,2.33
2018-09-15T09:59:01.644Z,2.83
2018-09-15T10:03:03.838Z,2.60
2018-09-15T10:07:06.108Z,2.20
2018-09-15T10:11:08.454Z,3.17
2018-09-15T10:15:10.648Z,1.47
2018-09-15T10:19:12.878Z,1.37
2018-09-15T10:23:15.047Z,1.07
2018-09-15T10:27:17.214Z,2.10
2018-09-15T10:31:19.554Z,1.43
2018-09-15T11:28:57.455Z,1.67
2018-09-15T11:32:59.587Z,2.13
2018-09-15T11:37:01.784Z,1.23
2018-09-15T11:41:04.178Z,1.60
2018-09-15T11:45:06.420Z,1.90
2018-09-15T11:49:09.229Z,1.50
2018-09-15T11:53:11.443Z,0.77
2018-09-15T11:57:14.139Z,2.63
2018-09-15T12:01:16.364Z,2.83
2018-09-15T12:05:19.606Z,2.90
2018-09-15T12:09:21.891Z,2.60
2018-09-15T12:13:24.052Z,1.93
2018-09-15T12:17:26.219Z,5.30
2018-09-15T12:21:28.410Z,2.87
2018-09-15T12:25:30.598Z,1.70
2018-09-15T12:29:32.807Z,5.37
2018-09-15T12:33:35.433Z,2.07
2018-09-15T12:37:37.606Z,1.87
2018-09-15T12:41:42.039Z,3.57
2018-09-15T12:45:44.360Z,2.20
2018-09-15T12:49:46.646Z,1.03
2018-09-15T12:53:48.896Z,3.73
2018-09-15T12:57:51.289Z,0.90
2018-09-15T13:01:53.621Z,1.50
2018-09-15T13:05:55.802Z,2.13
2018-09-15T13:09:58.037Z,1.13
2018-09-15T13:14:00.279Z,1.50
2018-09-15T13:18:02.534Z,2.50
2018-09-15T13:22:05.220Z,2.20
2018-09-15T13:26:07.469Z,1.40
2018-09-15T13:30:09.908Z,2.60
2018-09-15T13:34:12.093Z,2.70
2018-09-15T13:38:15.661Z,2.40
2018-09-15T13:42:17.940Z,3.73
2018-09-15T13:46:20.213Z,3.73
2018-09-15T13:50:22.397Z,1.23
2018-09-15T13:54:24.576Z,2.70
2018-09-15T13:58:26.763Z,1.90
2018-09-15T14:02:28.940Z,1.43
2018-09-15T14:06:31.110Z,1.23
2018-09-15T14:10:33.354Z,2.10
2018-09-15T14:14:35.559Z,3.70
2018-09-15T14:18:37.744Z,2.43
2018-09-15T14:22:39.947Z,1.27
2018-09-15T14:26:42.107Z,2.07
2018-09-15T14:30:44.556Z,1.57
2018-09-15T14:34:46.915Z,3.33
2018-09-15T14:38:49.248Z,1.00
2018-09-15T14:42:51.497Z,1.13
2018-09-15T14:46:53.857Z,2.20
2018-09-15T14:50:56.081Z,1.60
2018-09-15T14:54:58.270Z,2.73
2018-09-15T14:59:00.487Z,1.37
2018-09-15T15:03:04.933Z,2.33
2018-09-15T15:07:07.156Z,1.60
2018-09-15T15:11:09.311Z,2.10
2018-09-15T15:15:11.495Z,1.13
2018-09-15T15:19:13.884Z,3.83
2018-09-15T15:23:16.137Z,3.90
2018-09-15T15:27:18.319Z,1.50
2018-09-15T15:31:20.511Z,5.33
2018-09-15T15:35:22.841Z,4.70
2018-09-15T15:39:25.658Z,1.67
2018-09-15T15:43:27.918Z,3.27
2018-09-15T15:47:30.107Z,2.10
2018-09-15T15:51:32.694Z,6.07
2018-09-15T15:55:37.194Z,3.13
2018-09-15T15:59:39.413Z,2.33
2018-09-15T16:03:41.665Z,5.30
2018-09-15T16:07:43.918Z,4.70
2018-09-15T16:11:47.151Z,7.60
2018-09-15T16:15:50.272Z,1.67
2018-09-15T16:19:52.518Z,5.10
2018-09-15T16:23:54.736Z,9.23
2018-09-15T16:27:57.132Z,8.67
2018-09-15T16:31:59.333Z,2.53
2018-09-15T16:36:01.966Z,2.00
2018-09-15T16:40:04.247Z,2.27
2018-09-15T16:44:06.743Z,3.17
2018-09-15T16:48:08.948Z,2.20
2018-09-15T16:52:11.238Z,2.77
2018-09-15T16:56:13.453Z,2.07
2018-09-15T17:00:15.677Z,2.70
2018-09-15T17:04:17.955Z,3.00
2018-09-15T17:08:20.189Z,4.00
2018-09-15T17:12:22.386Z,1.97
2018-09-15T17:16:24.624Z,1.63
2018-09-15T17:20:26.834Z,2.40
2018-09-15T17:24:29.081Z,2.67
2018-09-15T17:28:31.375Z,2.53
2018-09-15T17:32:33.627Z,5.33
2018-09-15T17:36:35.870Z,5.07
2018-09-15T17:40:38.108Z,2.90
2018-09-15T17:44:40.446Z,2.70
2018-09-15T17:48:42.686Z,4.37
2018-09-15T17:52:44.973Z,3.20
2018-09-15T17:56:47.167Z,2.20
2018-09-15T18:00:49.788Z,3.70
2018-09-15T18:04:52.098Z,3.60
2018-09-15T18:08:54.301Z,3.67
2018-09-15T18:12:56.546Z,5.40
2018-09-15T18:16:58.802Z,3.93
2018-09-15T18:21:01.125Z,4.13
2018-09-15T18:25:03.503Z,4.90
2018-09-15T18:29:05.756Z,5.73
2018-09-15T18:33:07.971Z,4.93
2018-09-15T18:37:10.221Z,6.90
2018-09-15T18:41:12.523Z,4.50
2018-09-15T18:45:14.721Z,3.93
2018-09-15T18:49:17.189Z,3.80
2018-09-15T18:53:19.535Z,4.43
2018-09-15T18:57:21.783Z,4.30
2018-09-15T19:01:24.513Z,4.47
2018-09-15T19:05:29.579Z,4.63
2018-09-15T19:09:31.936Z,3.97
2018-09-15T19:13:34.091Z,4.67
2018-09-15T19:17:38.351Z,5.33
2018-09-15T19:21:40.551Z,3.73
2018-09-15T19:25:43.416Z,4.33
2018-09-15T19:29:45.831Z,4.23
2018-09-15T19:33:48.762Z,5.00
2018-09-15T19:37:51.916Z,5.93
2018-09-15T19:41:54.255Z,6.50
2018-09-15T19:45:56.547Z,6.63
2018-09-15T19:49:58.748Z,5.80
2018-09-15T19:54:01.184Z,5.63
2018-09-15T19:58:03.459Z,6.30
2018-09-15T20:02:05.905Z,4.67
2018-09-15T20:06:08.431Z,7.23
2018-09-15T20:10:10.589Z,8.07
2018-09-15T20:14:12.792Z,6.50
2018-09-15T20:18:15.359Z,5.10
2018-09-15T20:22:17.760Z,4.30
2018-09-15T20:26:20.440Z,4.93
2018-09-15T20:30:24.775Z,4.83
2018-09-15T20:34:27.630Z,3.27
2018-09-15T20:38:29.925Z,5.72
2018-09-15T20:42:32.222Z,4.37
2018-09-15T20:46:34.443Z,4.40
2018-09-15T20:50:37.305Z,6.87
2018-09-15T20:54:39.860Z,3.70
2018-09-15T20:58:42.202Z,5.80
2018-09-15T21:02:44.627Z,8.77
2018-09-15T21:06:46.887Z,7.87
2018-09-15T21:10:49.315Z,5.33
2018-09-15T21:14:51.622Z,4.67
2018-09-15T21:18:53.987Z,5.53
2018-09-15T21:22:56.191Z,6.00
2018-09-15T21:26:58.492Z,8.33
2018-09-15T21:31:00.656Z,4.87
2018-09-15T21:35:03.067Z,5.37
2018-09-15T21:39:08.166Z,5.00
2018-09-15T21:43:10.731Z,5.77
2018-09-15T21:47:13.280Z,6.40
2018-09-15T21:51:15.588Z,6.03
2018-09-15T21:55:17.810Z,5.17
2018-09-15T21:59:20.110Z,5.47
2018-09-15T22:03:22.819Z,6.27
2018-09-15T22:07:25.159Z,7.43
2018-09-15T22:11:29.795Z,4.53
2018-09-15T22:15:32.135Z,7.70
2018-09-15T22:19:34.471Z,11.33
2018-09-15T22:23:36.719Z,6.60
2018-09-15T22:27:48.928Z,5.77
2018-09-15T22:31:51.320Z,5.27
2018-09-15T22:35:53.594Z,6.27
2018-09-15T22:39:55.994Z,6.77
2018-09-15T22:43:58.227Z,7.23
2018-09-15T22:48:00.431Z,8.73
2018-09-15T22:52:02.647Z,6.70
2018-09-15T22:56:05.033Z,12.87
2018-09-15T23:00:09.339Z,6.87
2018-09-15T23:04:13.640Z,7.33
2018-09-15T23:08:15.871Z,7.07
2018-09-15T23:12:17.972Z,5.90
2018-09-15T23:16:20.508Z,6.63
2018-09-15T23:20:22.762Z,5.70
2018-09-15T23:24:24.951Z,6.90
2018-09-15T23:28:27.092Z,5.30
2018-09-15T23:32:29.307Z,5.80
2018-09-15T23:36:31.477Z,9.80
2018-09-15T23:40:33.646Z,6.10
2018-09-15T23:44:35.945Z,7.47
2018-09-15T23:48:38.123Z,7.80
2018-09-15T23:52:40.383Z,10.53
2018-09-15T23:56:42.583Z,7.97
